sensor_id;sensor_type;location;lat;lon;timestamp;P1;durP1;ratioP1;P2;durP2;ratioP2
22754;SDS011;11544;42.020;23.094;2022-10-16T00:02:09;4.47;;;2.70;;
22754;SDS011;11544;42.020;23.094;2022-10-16T00:04:35;3.47;;;2.20;;
22754;SDS011;11544;42.020;23.094;2022-10-16T00:07:01;3.33;;;2.58;;
22754;SDS011;11544;42.020;23.094;2022-10-16T00:09:26;5.05;;;2.75;;
22754;SDS011;11544;42.020;23.094;2022-10-16T00:11:52;2.65;;;2.15;;
22754;SDS011;11544;42.020;23.094;2022-10-16T00:14:18;3.90;;;2.00;;
22754;SDS011;11544;42.020;23.094;2022-10-16T00:16:43;2.78;;;2.30;;
22754;SDS011;11544;42.020;23.094;2022-10-16T00:19:10;3.75;;;2.53;;
22754;SDS011;11544;42.020;23.094;2022-10-16T00:21:36;5.22;;;2.88;;
22754;SDS011;11544;42.020;23.094;2022-10-16T00:24:03;5.47;;;3.40;;
22754;SDS011;11544;42.020;23.094;2022-10-16T00:26:32;3.95;;;2.38;;
22754;SDS011;11544;42.020;23.094;2022-10-16T00:28:58;4.97;;;3.08;;
22754;SDS011;11544;42.020;23.094;2022-10-16T00:31:24;3.03;;;2.40;;
22754;SDS011;11544;42.020;23.094;2022-10-16T00:33:50;6.32;;;2.72;;
22754;SDS011;11544;42.020;23.094;2022-10-16T00:36:18;5.57;;;2.60;;
22754;SDS011;11544;42.020;23.094;2022-10-16T00:38:45;4.82;;;2.53;;
22754;SDS011;11544;42.020;23.094;2022-10-16T00:41:13;3.60;;;2.50;;
22754;SDS011;11544;42.020;23.094;2022-10-16T00:46:16;4.88;;;2.85;;
22754;SDS011;11544;42.020;23.094;2022-10-16T00:49:06;5.43;;;3.30;;
22754;SDS011;11544;42.020;23.094;2022-10-16T00:51:40;4.15;;;2.35;;
22754;SDS011;11544;42.020;23.094;2022-10-16T00:54:10;4.53;;;2.25;;
22754;SDS011;11544;42.020;23.094;2022-10-16T00:56:40;7.07;;;3.25;;
22754;SDS011;11544;42.020;23.094;2022-10-16T00:59:07;5.75;;;2.53;;
22754;SDS011;11544;42.020;23.094;2022-10-16T01:01:40;6.55;;;3.08;;
22754;SDS011;11544;42.020;23.094;2022-10-16T01:04:06;4.85;;;2.38;;
22754;SDS011;11544;42.020;23.094;2022-10-16T01:09:25;5.03;;;3.03;;
22754;SDS011;11544;42.020;23.094;2022-10-16T01:22:40;4.75;;;2.80;;
22754;SDS011;11544;42.020;23.094;2022-10-16T01:25:22;4.45;;;2.83;;
22754;SDS011;11544;42.020;23.094;2022-10-16T01:28:01;6.05;;;3.20;;
22754;SDS011;11544;42.020;23.094;2022-10-16T01:30:31;4.55;;;2.70;;
22754;SDS011;11544;42.020;23.094;2022-10-16T01:33:01;4.22;;;2.88;;
22754;SDS011;11544;42.020;23.094;2022-10-16T01:35:37;3.78;;;2.30;;
22754;SDS011;11544;42.020;23.094;2022-10-16T01:40:32;5.75;;;2.13;;
22754;SDS011;11544;42.020;23.094;2022-10-16T01:44:02;4.13;;;2.35;;
22754;SDS011;11544;42.020;23.094;2022-10-16T01:45:59;4.72;;;2.88;;
22754;SDS011;11544;42.020;23.094;2022-10-16T01:48:26;5.20;;;2.40;;
22754;SDS011;11544;42.020;23.094;2022-10-16T01:50:55;3.78;;;2.60;;
22754;SDS011;11544;42.020;23.094;2022-10-16T01:53:26;4.18;;;2.47;;
22754;SDS011;11544;42.020;23.094;2022-10-16T01:55:52;4.18;;;2.40;;
22754;SDS011;11544;42.020;23.094;2022-10-16T01:58:21;4.05;;;2.67;;
22754;SDS011;11544;42.020;23.094;2022-10-16T02:00:49;4.35;;;3.20;;
22754;SDS011;11544;42.020;23.094;2022-10-16T02:03:18;4.32;;;2.83;;
22754;SDS011;11544;42.020;23.094;2022-10-16T02:05:52;4.47;;;2.72;;
22754;SDS011;11544;42.020;23.094;2022-10-16T02:08:24;3.35;;;2.38;;
22754;SDS011;11544;42.020;23.094;2022-10-16T02:10:54;4.72;;;2.55;;
22754;SDS011;11544;42.020;23.094;2022-10-16T02:13:37;4.55;;;2.97;;
22754;SDS011;11544;42.020;23.094;2022-10-16T02:16:23;6.15;;;3.03;;
22754;SDS011;11544;42.020;23.094;2022-10-16T02:18:59;8.82;;;3.40;;
22754;SDS011;11544;42.020;23.094;2022-10-16T02:26:41;4.97;;;3.30;;
22754;SDS011;11544;42.020;23.094;2022-10-16T02:29:14;5.70;;;3.20;;
22754;SDS011;11544;42.020;23.094;2022-10-16T02:31:45;4.90;;;2.67;;
22754;SDS011;11544;42.020;23.094;2022-10-16T02:34:14;5.35;;;3.05;;
22754;SDS011;11544;42.020;23.094;2022-10-16T02:36:42;5.40;;;3.33;;
22754;SDS011;11544;42.020;23.094;2022-10-16T02:39:09;6.35;;;3.00;;
22754;SDS011;11544;42.020;23.094;2022-10-16T02:41:36;6.13;;;3.13;;
22754;SDS011;11544;42.020;23.094;2022-10-16T02:44:02;8.88;;;3.28;;
22754;SDS011;11544;42.020;23.094;2022-10-16T02:46:27;5.57;;;3.17;;
22754;SDS011;11544;42.020;23.094;2022-10-16T02:48:53;4.50;;;3.20;;
22754;SDS011;11544;42.020;23.094;2022-10-16T02:51:19;8.70;;;3.65;;
22754;SDS011;11544;42.020;23.094;2022-10-16T02:53:44;4.95;;;3.55;;
22754;SDS011;11544;42.020;23.094;2022-10-16T02:56:10;4.68;;;2.83;;
22754;SDS011;11544;42.020;23.094;2022-10-16T02:58:36;5.05;;;2.65;;
22754;SDS011;11544;42.020;23.094;2022-10-16T03:01:01;4.10;;;2.55;;
22754;SDS011;11544;42.020;23.094;2022-10-16T03:03:27;4.45;;;2.92;;
22754;SDS011;11544;42.020;23.094;2022-10-16T03:05:53;3.85;;;2.88;;
22754;SDS011;11544;42.020;23.094;2022-10-16T03:08:19;5.00;;;2.50;;
22754;SDS011;11544;42.020;23.094;2022-10-16T03:10:49;3.90;;;2.70;;
22754;SDS011;11544;42.020;23.094;2022-10-16T03:13:15;3.55;;;2.63;;
22754;SDS011;11544;42.020;23.094;2022-10-16T03:15:40;4.07;;;2.53;;
22754;SDS011;11544;42.020;23.094;2022-10-16T03:18:06;5.55;;;2.97;;
22754;SDS011;11544;42.020;23.094;2022-10-16T03:20:32;5.00;;;2.78;;
22754;SDS011;11544;42.020;23.094;2022-10-16T03:22:57;6.93;;;2.65;;
22754;SDS011;11544;42.020;23.094;2022-10-16T03:25:23;6.38;;;2.97;;
22754;SDS011;11544;42.020;23.094;2022-10-16T03:27:49;5.32;;;2.65;;
22754;SDS011;11544;42.020;23.094;2022-10-16T03:30:15;4.10;;;2.92;;
22754;SDS011;11544;42.020;23.094;2022-10-16T03:32:41;4.32;;;3.03;;
22754;SDS011;11544;42.020;23.094;2022-10-16T03:35:09;4.75;;;3.13;;
22754;SDS011;11544;42.020;23.094;2022-10-16T03:37:35;3.67;;;2.83;;
22754;SDS011;11544;42.020;23.094;2022-10-16T03:40:02;5.03;;;2.78;;
22754;SDS011;11544;42.020;23.094;2022-10-16T03:42:28;4.05;;;2.95;;
22754;SDS011;11544;42.020;23.094;2022-10-16T03:44:54;4.53;;;3.17;;
22754;SDS011;11544;42.020;23.094;2022-10-16T03:47:20;4.90;;;3.20;;
22754;SDS011;11544;42.020;23.094;2022-10-16T03:49:48;4.43;;;2.67;;
22754;SDS011;11544;42.020;23.094;2022-10-16T03:52:14;4.55;;;3.10;;
22754;SDS011;11544;42.020;23.094;2022-10-16T03:54:40;4.82;;;3.20;;
22754;SDS011;11544;42.020;23.094;2022-10-16T03:57:06;7.18;;;3.25;;
22754;SDS011;11544;42.020;23.094;2022-10-16T03:59:32;6.45;;;3.47;;
22754;SDS011;11544;42.020;23.094;2022-10-16T04:01:58;4.07;;;2.90;;
22754;SDS011;11544;42.020;23.094;2022-10-16T04:04:23;5.07;;;3.08;;
22754;SDS011;11544;42.020;23.094;2022-10-16T04:06:50;4.45;;;3.45;;
22754;SDS011;11544;42.020;23.094;2022-10-16T04:09:16;4.53;;;3.38;;
22754;SDS011;11544;42.020;23.094;2022-10-16T04:11:42;4.80;;;3.00;;
22754;SDS011;11544;42.020;23.094;2022-10-16T04:14:08;4.53;;;3.30;;
22754;SDS011;11544;42.020;23.094;2022-10-16T04:16:33;4.70;;;3.38;;
22754;SDS011;11544;42.020;23.094;2022-10-16T04:18:59;8.40;;;3.97;;
22754;SDS011;11544;42.020;23.094;2022-10-16T04:21:25;8.38;;;3.53;;
22754;SDS011;11544;42.020;23.094;2022-10-16T04:23:50;5.43;;;3.63;;
22754;SDS011;11544;42.020;23.094;2022-10-16T04:26:16;5.63;;;3.88;;
22754;SDS011;11544;42.020;23.094;2022-10-16T04:28:42;6.90;;;4.40;;
22754;SDS011;11544;42.020;23.094;2022-10-16T04:31:08;11.32;;;3.75;;
22754;SDS011;11544;42.020;23.094;2022-10-16T04:33:34;4.97;;;3.15;;
22754;SDS011;11544;42.020;23.094;2022-10-16T04:36:00;5.97;;;3.00;;
22754;SDS011;11544;42.020;23.094;2022-10-16T04:38:27;7.25;;;3.45;;
22754;SDS011;11544;42.020;23.094;2022-10-16T04:40:53;5.40;;;3.45;;
22754;SDS011;11544;42.020;23.094;2022-10-16T04:43:19;6.85;;;3.58;;
22754;SDS011;11544;42.020;23.094;2022-10-16T04:45:45;6.65;;;3.50;;
22754;SDS011;11544;42.020;23.094;2022-10-16T04:48:11;6.05;;;4.05;;
22754;SDS011;11544;42.020;23.094;2022-10-16T04:50:36;8.23;;;4.30;;
22754;SDS011;11544;42.020;23.094;2022-10-16T04:53:06;7.85;;;4.35;;
22754;SDS011;11544;42.020;23.094;2022-10-16T04:55:32;6.22;;;4.28;;
22754;SDS011;11544;42.020;23.094;2022-10-16T04:57:58;7.85;;;4.00;;
22754;SDS011;11544;42.020;23.094;2022-10-16T05:00:23;5.18;;;3.65;;
22754;SDS011;11544;42.020;23.094;2022-10-16T05:02:50;6.72;;;3.88;;
22754;SDS011;11544;42.020;23.094;2022-10-16T05:05:16;9.30;;;3.90;;
22754;SDS011;11544;42.020;23.094;2022-10-16T05:07:42;5.63;;;3.63;;
22754;SDS011;11544;42.020;23.094;2022-10-16T05:10:08;6.00;;;3.90;;
22754;SDS011;11544;42.020;23.094;2022-10-16T05:12:33;6.45;;;4.57;;
22754;SDS011;11544;42.020;23.094;2022-10-16T05:14:59;6.85;;;4.18;;
22754;SDS011;11544;42.020;23.094;2022-10-16T05:17:25;6.88;;;3.58;;
22754;SDS011;11544;42.020;23.094;2022-10-16T05:19:51;5.88;;;3.83;;
22754;SDS011;11544;42.020;23.094;2022-10-16T05:22:17;9.07;;;4.47;;
22754;SDS011;11544;42.020;23.094;2022-10-16T05:24:43;6.32;;;3.95;;
22754;SDS011;11544;42.020;23.094;2022-10-16T05:27:09;5.72;;;3.67;;
22754;SDS011;11544;42.020;23.094;2022-10-16T05:29:36;5.82;;;3.67;;
22754;SDS011;11544;42.020;23.094;2022-10-16T05:32:02;4.55;;;3.47;;
22754;SDS011;11544;42.020;23.094;2022-10-16T05:34:28;6.00;;;3.95;;
22754;SDS011;11544;42.020;23.094;2022-10-16T05:36:53;5.57;;;3.50;;
22754;SDS011;11544;42.020;23.094;2022-10-16T05:39:19;5.53;;;3.58;;
22754;SDS011;11544;42.020;23.094;2022-10-16T05:41:45;5.13;;;3.80;;
22754;SDS011;11544;42.020;23.094;2022-10-16T05:44:10;5.80;;;3.97;;
22754;SDS011;11544;42.020;23.094;2022-10-16T05:46:36;6.10;;;3.72;;
22754;SDS011;11544;42.020;23.094;2022-10-16T05:49:02;6.85;;;3.65;;
22754;SDS011;11544;42.020;23.094;2022-10-16T05:51:28;6.47;;;4.07;;
22754;SDS011;11544;42.020;23.094;2022-10-16T05:53:55;11.07;;;5.65;;
22754;SDS011;11544;42.020;23.094;2022-10-16T05:56:22;8.00;;;5.32;;
22754;SDS011;11544;42.020;23.094;2022-10-16T05:58:47;11.77;;;5.95;;
22754;SDS011;11544;42.020;23.094;2022-10-16T06:01:15;10.27;;;5.57;;
22754;SDS011;11544;42.020;23.094;2022-10-16T06:04:06;9.15;;;5.60;;
22754;SDS011;11544;42.020;23.094;2022-10-16T06:06:36;11.63;;;5.80;;
22754;SDS011;11544;42.020;23.094;2022-10-16T06:09:02;10.13;;;6.05;;
22754;SDS011;11544;42.020;23.094;2022-10-16T06:11:29;7.22;;;4.97;;
22754;SDS011;11544;42.020;23.094;2022-10-16T06:13:57;11.85;;;5.53;;
22754;SDS011;11544;42.020;23.094;2022-10-16T06:16:27;13.73;;;5.80;;
22754;SDS011;11544;42.020;23.094;2022-10-16T06:18:53;9.18;;;5.05;;
22754;SDS011;11544;42.020;23.094;2022-10-16T06:21:22;7.68;;;4.97;;
22754;SDS011;11544;42.020;23.094;2022-10-16T06:23:52;12.40;;;4.53;;
22754;SDS011;11544;42.020;23.094;2022-10-16T06:26:20;8.10;;;4.47;;
22754;SDS011;11544;42.020;23.094;2022-10-16T06:28:48;10.05;;;4.95;;
22754;SDS011;11544;42.020;23.094;2022-10-16T06:31:17;8.75;;;5.43;;
22754;SDS011;11544;42.020;23.094;2022-10-16T06:33:43;11.38;;;5.10;;
22754;SDS011;11544;42.020;23.094;2022-10-16T06:36:15;7.47;;;4.85;;
22754;SDS011;11544;42.020;23.094;2022-10-16T06:38:49;9.95;;;4.90;;
22754;SDS011;11544;42.020;23.094;2022-10-16T06:41:16;10.25;;;5.35;;
22754;SDS011;11544;42.020;23.094;2022-10-16T06:43:46;8.60;;;5.40;;
22754;SDS011;11544;42.020;23.094;2022-10-16T06:46:13;9.15;;;5.47;;
22754;SDS011;11544;42.020;23.094;2022-10-16T06:48:54;8.27;;;5.45;;
22754;SDS011;11544;42.020;23.094;2022-10-16T06:51:21;6.97;;;5.10;;
22754;SDS011;11544;42.020;23.094;2022-10-16T06:54:09;16.42;;;5.10;;
22754;SDS011;11544;42.020;23.094;2022-10-16T06:56:47;6.50;;;4.85;;
22754;SDS011;11544;42.020;23.094;2022-10-16T06:59:33;8.82;;;4.53;;
22754;SDS011;11544;42.020;23.094;2022-10-16T07:01:58;9.43;;;5.22;;
22754;SDS011;11544;42.020;23.094;2022-10-16T07:04:24;10.90;;;8.80;;
22754;SDS011;11544;42.020;23.094;2022-10-16T07:06:53;7.68;;;4.57;;
22754;SDS011;11544;42.020;23.094;2022-10-16T07:09:19;10.85;;;4.32;;
22754;SDS011;11544;42.020;23.094;2022-10-16T07:12:02;5.60;;;4.05;;
22754;SDS011;11544;42.020;23.094;2022-10-16T07:14:28;7.65;;;4.90;;
22754;SDS011;11544;42.020;23.094;2022-10-16T07:16:55;7.07;;;4.13;;
22754;SDS011;11544;42.020;23.094;2022-10-16T07:19:20;7.70;;;4.68;;
22754;SDS011;11544;42.020;23.094;2022-10-16T07:21:46;7.00;;;4.45;;
22754;SDS011;11544;42.020;23.094;2022-10-16T07:24:13;7.20;;;4.50;;
22754;SDS011;11544;42.020;23.094;2022-10-16T07:26:41;7.03;;;4.53;;
22754;SDS011;11544;42.020;23.094;2022-10-16T07:29:12;5.90;;;3.78;;
22754;SDS011;11544;42.020;23.094;2022-10-16T07:31:40;7.85;;;4.90;;
22754;SDS011;11544;42.020;23.094;2022-10-16T07:34:07;5.20;;;4.00;;
22754;SDS011;11544;42.020;23.094;2022-10-16T07:36:33;6.47;;;4.28;;
22754;SDS011;11544;42.020;23.094;2022-10-16T07:38:59;5.68;;;4.13;;
22754;SDS011;11544;42.020;23.094;2022-10-16T07:41:25;8.20;;;4.20;;
22754;SDS011;11544;42.020;23.094;2022-10-16T07:43:52;4.68;;;3.88;;
22754;SDS011;11544;42.020;23.094;2022-10-16T07:46:18;5.80;;;4.25;;
22754;SDS011;11544;42.020;23.094;2022-10-16T07:48:45;5.57;;;4.15;;
22754;SDS011;11544;42.020;23.094;2022-10-16T07:51:15;5.53;;;4.20;;
22754;SDS011;11544;42.020;23.094;2022-10-16T07:53:42;5.07;;;4.00;;
22754;SDS011;11544;42.020;23.094;2022-10-16T07:56:08;6.60;;;4.55;;
22754;SDS011;11544;42.020;23.094;2022-10-16T07:58:34;8.93;;;4.10;;
22754;SDS011;11544;42.020;23.094;2022-10-16T08:01:06;7.13;;;4.72;;
22754;SDS011;11544;42.020;23.094;2022-10-16T08:03:45;8.00;;;4.22;;
22754;SDS011;11544;42.020;23.094;2022-10-16T08:06:12;7.03;;;4.63;;
22754;SDS011;11544;42.020;23.094;2022-10-16T08:08:38;8.75;;;5.50;;
22754;SDS011;11544;42.020;23.094;2022-10-16T08:11:04;6.60;;;4.60;;
22754;SDS011;11544;42.020;23.094;2022-10-16T08:13:30;6.10;;;4.47;;
22754;SDS011;11544;42.020;23.094;2022-10-16T08:15:56;8.27;;;4.55;;
22754;SDS011;11544;42.020;23.094;2022-10-16T08:18:22;6.53;;;4.57;;
22754;SDS011;11544;42.020;23.094;2022-10-16T08:20:48;8.43;;;4.40;;
22754;SDS011;11544;42.020;23.094;2022-10-16T08:23:19;6.60;;;4.10;;
22754;SDS011;11544;42.020;23.094;2022-10-16T08:25:45;6.78;;;4.60;;
22754;SDS011;11544;42.020;23.094;2022-10-16T08:28:11;6.30;;;4.18;;
22754;SDS011;11544;42.020;23.094;2022-10-16T08:30:40;5.65;;;4.00;;
22754;SDS011;11544;42.020;23.094;2022-10-16T08:33:11;6.88;;;3.97;;
22754;SDS011;11544;42.020;23.094;2022-10-16T08:35:37;10.25;;;4.28;;
22754;SDS011;11544;42.020;23.094;2022-10-16T08:38:03;7.22;;;3.72;;
22754;SDS011;11544;42.020;23.094;2022-10-16T08:40:34;6.07;;;4.13;;
22754;SDS011;11544;42.020;23.094;2022-10-16T08:46:02;6.47;;;4.15;;
22754;SDS011;11544;42.020;23.094;2022-10-16T08:48:49;6.68;;;4.18;;
22754;SDS011;11544;42.020;23.094;2022-10-16T08:51:24;6.93;;;4.45;;
22754;SDS011;11544;42.020;23.094;2022-10-16T08:59:15;5.38;;;3.53;;
22754;SDS011;11544;42.020;23.094;2022-10-16T09:01:46;5.95;;;3.55;;
22754;SDS011;11544;42.020;23.094;2022-10-16T09:10:38;8.10;;;3.30;;
22754;SDS011;11544;42.020;23.094;2022-10-16T09:13:20;6.45;;;3.78;;
22754;SDS011;11544;42.020;23.094;2022-10-16T09:21:44;7.63;;;4.13;;
22754;SDS011;11544;42.020;23.094;2022-10-16T09:24:16;8.25;;;4.07;;
22754;SDS011;11544;42.020;23.094;2022-10-16T09:26:44;5.22;;;3.08;;
22754;SDS011;11544;42.020;23.094;2022-10-16T09:29:14;7.75;;;3.25;;
22754;SDS011;11544;42.020;23.094;2022-10-16T09:31:41;6.07;;;3.50;;
22754;SDS011;11544;42.020;23.094;2022-10-16T09:34:17;5.68;;;3.63;;
22754;SDS011;11544;42.020;23.094;2022-10-16T09:36:55;9.52;;;3.50;;
22754;SDS011;11544;42.020;23.094;2022-10-16T09:39:23;6.18;;;3.22;;
22754;SDS011;11544;42.020;23.094;2022-10-16T09:41:49;6.80;;;3.35;;
22754;SDS011;11544;42.020;23.094;2022-10-16T09:44:26;6.57;;;3.85;;
22754;SDS011;11544;42.020;23.094;2022-10-16T09:47:12;7.35;;;3.05;;
22754;SDS011;11544;42.020;23.094;2022-10-16T09:53:02;6.07;;;3.08;;
22754;SDS011;11544;42.020;23.094;2022-10-16T09:55:36;5.25;;;3.10;;
22754;SDS011;11544;42.020;23.094;2022-10-16T09:58:01;4.30;;;3.25;;
22754;SDS011;11544;42.020;23.094;2022-10-16T10:00:27;5.07;;;3.05;;
22754;SDS011;11544;42.020;23.094;2022-10-16T10:02:53;3.78;;;3.00;;
22754;SDS011;11544;42.020;23.094;2022-10-16T10:07:52;11.25;;;3.50;;
22754;SDS011;11544;42.020;23.094;2022-10-16T10:10:21;5.68;;;2.95;;
22754;SDS011;11544;42.020;23.094;2022-10-16T10:12:49;4.78;;;2.92;;
22754;SDS011;11544;42.020;23.094;2022-10-16T10:15:15;4.90;;;2.40;;
22754;SDS011;11544;42.020;23.094;2022-10-16T10:17:52;4.22;;;2.63;;
22754;SDS011;11544;42.020;23.094;2022-10-16T10:20:33;3.53;;;2.85;;
22754;SDS011;11544;42.020;23.094;2022-10-16T10:23:01;6.20;;;3.15;;
22754;SDS011;11544;42.020;23.094;2022-10-16T10:25:55;5.32;;;3.22;;
22754;SDS011;11544;42.020;23.094;2022-10-16T10:28:45;5.28;;;2.78;;
22754;SDS011;11544;42.020;23.094;2022-10-16T10:36:41;3.53;;;2.83;;
22754;SDS011;11544;42.020;23.094;2022-10-16T10:39:21;4.63;;;2.47;;
22754;SDS011;11544;42.020;23.094;2022-10-16T10:47:28;4.40;;;2.70;;
22754;SDS011;11544;42.020;23.094;2022-10-16T10:52:56;4.78;;;2.17;;
22754;SDS011;11544;42.020;23.094;2022-10-16T11:07:02;3.35;;;2.65;;
22754;SDS011;11544;42.020;23.094;2022-10-16T11:09:35;3.92;;;2.75;;
22754;SDS011;11544;42.020;23.094;2022-10-16T11:17:33;3.97;;;2.45;;
22754;SDS011;11544;42.020;23.094;2022-10-16T11:20:18;6.70;;;2.60;;
22754;SDS011;11544;42.020;23.094;2022-10-16T11:22:50;4.57;;;2.60;;
22754;SDS011;11544;42.020;23.094;2022-10-16T11:25:23;5.32;;;2.60;;
22754;SDS011;11544;42.020;23.094;2022-10-16T11:30:32;3.83;;;2.70;;
22754;SDS011;11544;42.020;23.094;2022-10-16T11:35:48;3.40;;;2.53;;
22754;SDS011;11544;42.020;23.094;2022-10-16T11:40:53;6.05;;;2.55;;
22754;SDS011;11544;42.020;23.094;2022-10-16T11:43:28;5.70;;;2.30;;
22754;SDS011;11544;42.020;23.094;2022-10-16T11:46:02;7.45;;;2.53;;
22754;SDS011;11544;42.020;23.094;2022-10-16T11:51:17;6.55;;;2.67;;
22754;SDS011;11544;42.020;23.094;2022-10-16T11:56:46;2.72;;;2.30;;
22754;SDS011;11544;42.020;23.094;2022-10-16T11:59:23;4.43;;;2.63;;
22754;SDS011;11544;42.020;23.094;2022-10-16T12:04:49;5.70;;;3.08;;
22754;SDS011;11544;42.020;23.094;2022-10-16T12:07:27;7.18;;;2.83;;
22754;SDS011;11544;42.020;23.094;2022-10-16T12:10:18;7.57;;;2.88;;
22754;SDS011;11544;42.020;23.094;2022-10-16T12:12:52;9.00;;;3.88;;
22754;SDS011;11544;42.020;23.094;2022-10-16T12:17:49;5.15;;;2.47;;
22754;SDS011;11544;42.020;23.094;2022-10-16T12:20:21;7.38;;;3.25;;
22754;SDS011;11544;42.020;23.094;2022-10-16T12:25:34;4.35;;;2.90;;
22754;SDS011;11544;42.020;23.094;2022-10-16T12:30:41;5.30;;;2.50;;
22754;SDS011;11544;42.020;23.094;2022-10-16T12:33:19;3.67;;;2.80;;
22754;SDS011;11544;42.020;23.094;2022-10-16T12:35:49;5.10;;;2.42;;
22754;SDS011;11544;42.020;23.094;2022-10-16T12:38:17;4.15;;;2.30;;
22754;SDS011;11544;42.020;23.094;2022-10-16T12:40:55;4.07;;;2.42;;
22754;SDS011;11544;42.020;23.094;2022-10-16T12:48:35;5.25;;;2.58;;
22754;SDS011;11544;42.020;23.094;2022-10-16T12:51:09;4.28;;;2.50;;
22754;SDS011;11544;42.020;23.094;2022-10-16T12:53:35;3.53;;;2.15;;
22754;SDS011;11544;42.020;23.094;2022-10-16T12:56:09;3.15;;;2.05;;
22754;SDS011;11544;42.020;23.094;2022-10-16T12:59:21;6.50;;;2.47;;
22754;SDS011;11544;42.020;23.094;2022-10-16T13:01:35;5.80;;;3.17;;
22754;SDS011;11544;42.020;23.094;2022-10-16T13:07:15;3.58;;;2.53;;
22754;SDS011;11544;42.020;23.094;2022-10-16T13:09:52;4.28;;;2.88;;
22754;SDS011;11544;42.020;23.094;2022-10-16T13:18:13;4.47;;;2.20;;
22754;SDS011;11544;42.020;23.094;2022-10-16T13:20:51;4.10;;;2.17;;
22754;SDS011;11544;42.020;23.094;2022-10-16T13:29:18;5.28;;;3.22;;
22754;SDS011;11544;42.020;23.094;2022-10-16T13:31:45;4.07;;;2.58;;
22754;SDS011;11544;42.020;23.094;2022-10-16T13:34:18;3.80;;;2.30;;
22754;SDS011;11544;42.020;23.094;2022-10-16T13:36:48;6.10;;;2.63;;
22754;SDS011;11544;42.020;23.094;2022-10-16T13:41:44;2.42;;;2.05;;
22754;SDS011;11544;42.020;23.094;2022-10-16T13:44:14;5.97;;;2.65;;
22754;SDS011;11544;42.020;23.094;2022-10-16T13:46:44;4.57;;;2.20;;
22754;SDS011;11544;42.020;23.094;2022-10-16T13:49:12;3.83;;;2.60;;
22754;SDS011;11544;42.020;23.094;2022-10-16T13:51:53;5.53;;;2.33;;
22754;SDS011;11544;42.020;23.094;2022-10-16T13:54:20;3.42;;;1.85;;
22754;SDS011;11544;42.020;23.094;2022-10-16T13:56:48;6.28;;;1.95;;
22754;SDS011;11544;42.020;23.094;2022-10-16T13:59:24;3.42;;;2.20;;
22754;SDS011;11544;42.020;23.094;2022-10-16T14:01:53;4.45;;;2.95;;
22754;SDS011;11544;42.020;23.094;2022-10-16T14:04:21;4.13;;;2.58;;
22754;SDS011;11544;42.020;23.094;2022-10-16T14:06:49;4.03;;;2.63;;
22754;SDS011;11544;42.020;23.094;2022-10-16T14:09:29;3.38;;;1.98;;
22754;SDS011;11544;42.020;23.094;2022-10-16T14:14:42;2.95;;;2.28;;
22754;SDS011;11544;42.020;23.094;2022-10-16T14:17:13;5.25;;;2.25;;
22754;SDS011;11544;42.020;23.094;2022-10-16T14:19:48;3.30;;;2.30;;
22754;SDS011;11544;42.020;23.094;2022-10-16T14:25:25;4.25;;;2.25;;
22754;SDS011;11544;42.020;23.094;2022-10-16T14:28:03;4.78;;;2.10;;
22754;SDS011;11544;42.020;23.094;2022-10-16T14:30:48;3.03;;;2.38;;
22754;SDS011;11544;42.020;23.094;2022-10-16T14:33:32;4.72;;;2.45;;
22754;SDS011;11544;42.020;23.094;2022-10-16T14:38:39;6.32;;;2.55;;
22754;SDS011;11544;42.020;23.094;2022-10-16T14:41:07;3.83;;;2.40;;
22754;SDS011;11544;42.020;23.094;2022-10-16T14:46:02;3.63;;;2.20;;
22754;SDS011;11544;42.020;23.094;2022-10-16T14:48:30;4.38;;;2.10;;
22754;SDS011;11544;42.020;23.094;2022-10-16T14:50:56;4.32;;;2.72;;
22754;SDS011;11544;42.020;23.094;2022-10-16T14:53:22;5.28;;;2.50;;
22754;SDS011;11544;42.020;23.094;2022-10-16T14:55:47;7.10;;;2.55;;
22754;SDS011;11544;42.020;23.094;2022-10-16T14:58:22;3.92;;;2.05;;
22754;SDS011;11544;42.020;23.094;2022-10-16T15:00:50;3.33;;;1.90;;
22754;SDS011;11544;42.020;23.094;2022-10-16T15:03:15;2.72;;;1.90;;
22754;SDS011;11544;42.020;23.094;2022-10-16T15:05:41;4.03;;;1.98;;
22754;SDS011;11544;42.020;23.094;2022-10-16T15:08:07;2.70;;;2.10;;
22754;SDS011;11544;42.020;23.094;2022-10-16T15:10:35;3.78;;;1.80;;
22754;SDS011;11544;42.020;23.094;2022-10-16T15:13:04;3.85;;;1.70;;
22754;SDS011;11544;42.020;23.094;2022-10-16T15:15:34;3.20;;;2.08;;
22754;SDS011;11544;42.020;23.094;2022-10-16T15:18:05;3.80;;;2.35;;
22754;SDS011;11544;42.020;23.094;2022-10-16T15:20:32;5.57;;;1.77;;
22754;SDS011;11544;42.020;23.094;2022-10-16T15:23:04;3.35;;;1.92;;
22754;SDS011;11544;42.020;23.094;2022-10-16T15:25:42;3.30;;;2.53;;
22754;SDS011;11544;42.020;23.094;2022-10-16T15:28:11;3.28;;;1.98;;
22754;SDS011;11544;42.020;23.094;2022-10-16T15:30:38;2.67;;;1.90;;
22754;SDS011;11544;42.020;23.094;2022-10-16T15:33:05;3.15;;;2.03;;
22754;SDS011;11544;42.020;23.094;2022-10-16T15:35:37;2.58;;;1.95;;
22754;SDS011;11544;42.020;23.094;2022-10-16T15:38:03;3.33;;;1.98;;
22754;SDS011;11544;42.020;23.094;2022-10-16T15:40:29;3.55;;;2.33;;
22754;SDS011;11544;42.020;23.094;2022-10-16T15:42:55;3.40;;;2.35;;
22754;SDS011;11544;42.020;23.094;2022-10-16T15:45:20;3.33;;;2.17;;
22754;SDS011;11544;42.020;23.094;2022-10-16T15:47:46;3.20;;;2.03;;
22754;SDS011;11544;42.020;23.094;2022-10-16T15:50:13;3.28;;;2.10;;
22754;SDS011;11544;42.020;23.094;2022-10-16T15:52:40;3.38;;;1.85;;
22754;SDS011;11544;42.020;23.094;2022-10-16T15:55:10;9.18;;;2.97;;
22754;SDS011;11544;42.020;23.094;2022-10-16T15:57:38;8.32;;;4.50;;
22754;SDS011;11544;42.020;23.094;2022-10-16T16:00:06;4.88;;;3.30;;
22754;SDS011;11544;42.020;23.094;2022-10-16T16:02:37;8.25;;;4.05;;
22754;SDS011;11544;42.020;23.094;2022-10-16T16:05:03;7.50;;;4.35;;
22754;SDS011;11544;42.020;23.094;2022-10-16T16:07:32;6.85;;;4.10;;
22754;SDS011;11544;42.020;23.094;2022-10-16T16:10:05;8.98;;;4.00;;
22754;SDS011;11544;42.020;23.094;2022-10-16T16:12:33;5.68;;;3.13;;
22754;SDS011;11544;42.020;23.094;2022-10-16T16:14:59;3.60;;;2.60;;
22754;SDS011;11544;42.020;23.094;2022-10-16T16:17:25;4.60;;;2.60;;
22754;SDS011;11544;42.020;23.094;2022-10-16T16:19:51;4.53;;;2.30;;
22754;SDS011;11544;42.020;23.094;2022-10-16T16:22:17;5.05;;;2.67;;
22754;SDS011;11544;42.020;23.094;2022-10-16T16:24:42;3.67;;;2.40;;
22754;SDS011;11544;42.020;23.094;2022-10-16T16:27:08;3.33;;;2.58;;
22754;SDS011;11544;42.020;23.094;2022-10-16T16:29:35;6.47;;;3.10;;
22754;SDS011;11544;42.020;23.094;2022-10-16T16:32:01;4.00;;;2.63;;
22754;SDS011;11544;42.020;23.094;2022-10-16T16:34:27;5.38;;;2.75;;
22754;SDS011;11544;42.020;23.094;2022-10-16T16:36:54;5.32;;;2.80;;
22754;SDS011;11544;42.020;23.094;2022-10-16T16:39:21;5.07;;;2.92;;
22754;SDS011;11544;42.020;23.094;2022-10-16T16:41:47;5.43;;;2.95;;
22754;SDS011;11544;42.020;23.094;2022-10-16T16:44:13;5.20;;;3.10;;
22754;SDS011;11544;42.020;23.094;2022-10-16T16:46:40;7.97;;;3.28;;
22754;SDS011;11544;42.020;23.094;2022-10-16T16:49:09;6.57;;;2.83;;
22754;SDS011;11544;42.020;23.094;2022-10-16T16:51:36;4.35;;;2.33;;
22754;SDS011;11544;42.020;23.094;2022-10-16T16:54:02;5.10;;;2.55;;
22754;SDS011;11544;42.020;23.094;2022-10-16T16:56:29;3.97;;;2.40;;
22754;SDS011;11544;42.020;23.094;2022-10-16T16:58:55;4.68;;;2.33;;
22754;SDS011;11544;42.020;23.094;2022-10-16T17:01:23;4.35;;;2.58;;
22754;SDS011;11544;42.020;23.094;2022-10-16T17:03:51;4.97;;;2.97;;
22754;SDS011;11544;42.020;23.094;2022-10-16T17:06:19;6.45;;;3.03;;